Time;durP1;ratioP1;P1;durP2;ratioP2;P2;SDS_P1;SDS_P2;PMS_P1;PMS_P2;Temp;Humidity;BMP_temperature;BMP_pressure;BME280_temperature;BME280_humidity;BME280_pressure;Samples;Min_cycle;Max_cycle;Signal;HPM_P1;HPM_P2
2022/01/03 00:00:17;;;;;;;12.38;2.80;;;9.60;99.90;;;;;;5072208;28;20044;-75
2022/01/03 00:02:44;;;;;;;12.93;2.72;;;8.70;99.90;;;;;;5070089;28;20049;-75
2022/01/03 00:05:11;;;;;;;11.43;2.47;;;8.80;99.90;;;;;;5087633;28;20507;-75
2022/01/03 00:07:42;;;;;;;14.80;3.65;;;9.00;99.90;;;;;;5093135;28;20166;-76
2022/01/03 00:10:09;;;;;;;14.68;3.53;;;9.40;99.90;;;;;;5072877;28;20365;-77
2022/01/03 00:12:37;;;;;;;14.68;2.80;;;8.80;99.90;;;;;;5091080;28;20075;-75
2022/01/03 00:15:08;;;;;;;12.35;2.53;;;8.90;99.90;;;;;;5070771;28;20393;-76
2022/01/03 00:17:34;;;;;;;12.23;2.83;;;8.80;99.90;;;;;;5095878;28;20504;-75
2022/01/03 00:20:00;;;;;;;14.25;3.33;;;8.80;99.90;;;;;;5104759;28;20044;-75
2022/01/03 00:22:27;;;;;;;20.25;3.38;;;8.80;99.90;;;;;;5088247;28;20413;-75
2022/01/03 00:25:03;;;;;;;9.15;3.10;;;8.70;99.90;;;;;;5104903;28;20485;-76
2022/01/03 00:27:44;;;;;;;13.40;3.45;;;9.00;99.90;;;;;;5104798;28;20072;-74
2022/01/03 00:30:11;;;;;;;12.25;3.10;;;8.80;99.90;;;;;;5087226;28;20090;-74
2022/01/03 00:32:42;;;;;;;15.40;3.42;;;8.70;99.90;;;;;;5098715;28;20534;-75
2022/01/03 00:35:08;;;;;;;13.77;3.63;;;8.60;99.90;;;;;;5104553;28;20048;-76
2022/01/03 00:37:35;;;;;;;22.45;4.32;;;8.70;99.90;;;;;;5104493;28;20489;-75
2022/01/03 00:40:01;;;;;;;20.20;4.88;;;9.80;99.90;;;;;;5104023;28;20045;-74
2022/01/03 00:42:27;;;;;;;14.25;2.90;;;10.30;99.90;;;;;;5104961;28;20049;-74
2022/01/03 00:44:53;;;;;;;16.70;4.00;;;8.70;99.90;;;;;;5103812;28;20051;-75
2022/01/03 00:47:19;;;;;;;16.35;4.57;;;8.70;99.90;;;;;;5118329;28;20437;-75
2022/01/03 00:49:45;;;;;;;16.42;4.30;;;8.30;99.90;;;;;;5074103;28;20050;-75
2022/01/03 00:52:12;;;;;;;13.32;3.22;;;8.60;99.90;;;;;;5090911;28;20043;-75
2022/01/03 00:54:38;;;;;;;19.60;4.63;;;8.50;99.90;;;;;;5091104;28;20036;-76
2022/01/03 00:57:07;;;;;;;23.08;4.18;;;9.70;99.90;;;;;;5090091;28;20123;-75
2022/01/03 00:59:42;;;;;;;19.95;4.95;;;8.80;99.90;;;;;;5125088;28;20048;-75
2022/01/03 01:02:10;;;;;;;13.60;3.75;;;8.70;99.90;;;;;;5090282;28;20048;-75
2022/01/03 01:04:37;;;;;;;19.45;4.13;;;8.60;99.90;;;;;;5090429;28;20048;-75
2022/01/03 01:07:06;;;;;;;18.38;3.70;;;8.60;99.90;;;;;;5093010;28;20480;-74
2022/01/03 01:09:34;;;;;;;18.05;4.40;;;8.70;99.90;;;;;;5094398;28;20052;-74
2022/01/03 01:12:00;;;;;;;18.58;4.60;;;;;;;;;;5076527;28;20110;-74
2022/01/03 01:14:27;;;;;;;15.32;3.80;;;8.80;99.90;;;;;;5094493;28;20048;-75
2022/01/03 01:16:54;;;;;;;21.73;4.93;;;8.80;99.90;;;;;;5093579;28;20044;-75
2022/01/03 01:19:22;;;;;;;23.90;6.30;;;9.00;99.90;;;;;;5094293;28;20527;-75
2022/01/03 01:21:49;;;;;;;24.92;6.38;;;9.00;99.90;;;;;;5094184;28;20036;-75
2022/01/03 01:24:17;;;;;;;24.80;5.72;;;8.60;99.90;;;;;;5094401;28;20396;-75
2022/01/03 01:29:27;;;;;;;18.90;3.75;;;8.90;99.90;;;;;;5073777;28;20443;-75
2022/01/03 01:31:59;;;;;;;18.85;4.13;;;8.80;99.90;;;;;;5121097;27;20040;-75
2022/01/03 01:34:29;;;;;;;19.95;4.57;;;8.90;99.90;;;;;;5097352;28;20044;-75
2022/01/03 01:36:57;;;;;;;23.90;4.75;;;9.60;99.90;;;;;;5095562;28;20036;-74
2022/01/03 01:39:28;;;;;;;21.40;4.82;;;9.00;99.90;;;;;;5110876;28;20047;-75
2022/01/03 01:41:59;;;;;;;16.23;3.85;;;8.90;99.90;;;;;;5096801;28;20502;-75
2022/01/03 01:44:25;;;;;;;15.60;4.65;;;8.90;99.90;;;;;;5097723;28;20067;-74
2022/01/03 01:46:54;;;;;;;21.98;5.22;;;9.50;99.90;;;;;;5096479;28;20126;-75
2022/01/03 01:49:22;;;;;;;18.40;4.22;;;9.10;99.90;;;;;;5114327;28;20492;-75
2022/01/03 01:51:56;;;;;;;19.95;4.38;;;9.70;99.90;;;;;;5096919;28;20503;-75
2022/01/03 01:54:30;;;;;;;21.92;5.50;;;9.00;99.90;;;;;;5096993;28;20035;-75
2022/01/03 01:57:01;;;;;;;18.70;3.92;;;9.10;99.90;;;;;;5095964;28;20043;-71
2022/01/03 01:59:34;;;;;;;20.90;4.72;;;9.10;99.90;;;;;;5096546;28;20592;-72
2022/01/03 02:02:00;;;;;;;18.25;5.07;;;;;;;;;;5095510;28;20079;-75
2022/01/03 02:04:33;;;;;;;17.52;3.97;;;9.00;99.90;;;;;;5096812;28;20573;-74
2022/01/03 02:07:19;;;;;;;23.25;5.55;;;9.00;99.90;;;;;;5096385;28;20047;-70
2022/01/03 02:09:59;;;;;;;16.67;4.20;;;9.10;99.90;;;;;;5065274;28;20557;-75
2022/01/03 02:12:26;;;;;;;16.23;4.13;;;10.00;99.90;;;;;;5096649;28;20043;-75
2022/01/03 02:14:57;;;;;;;17.20;4.40;;;8.90;99.90;;;;;;5095617;28;20047;-75
2022/01/03 02:17:23;;;;;;;20.65;4.28;;;8.70;99.90;;;;;;5089699;28;20055;-74
2022/01/03 02:20:03;;;;;;;20.83;4.60;;;8.90;99.90;;;;;;5093019;28;20040;-74
2022/01/03 02:22:28;;;;;;;27.50;6.03;;;9.00;99.90;;;;;;5098480;28;20427;-75
2022/01/03 02:24:54;;;;;;;17.77;5.10;;;10.50;99.90;;;;;;5109674;28;20056;-76
2022/01/03 02:27:20;;;;;;;24.85;5.47;;;;;;;;;;5110134;28;20032;-76
2022/01/03 02:29:46;;;;;;;20.63;5.10;;;9.00;99.90;;;;;;5085942;28;20506;-74
2022/01/03 02:32:11;;;;;;;23.05;4.70;;;8.90;99.90;;;;;;5095957;28;20134;-76
2022/01/03 02:34:37;;;;;;;24.13;5.50;;;9.00;99.90;;;;;;5096468;28;20078;-75
2022/01/03 02:37:03;;;;;;;18.40;4.70;;;8.80;99.90;;;;;;5095259;28;20122;-75
2022/01/03 02:39:29;;;;;;;24.92;6.57;;;9.40;99.90;;;;;;5096371;28;20373;-74
2022/01/03 02:41:54;;;;;;;27.13;5.80;;;8.90;99.90;;;;;;5095546;28;20047;-75
2022/01/03 02:44:20;;;;;;;21.33;5.70;;;;;;;;;;5078691;28;20046;-76
2022/01/03 02:46:46;;;;;;;27.55;5.60;;;;;;;;;;5114196;28;20446;-74
2022/01/03 02:49:12;;;;;;;23.40;4.78;;;8.80;99.90;;;;;;5095739;28;20051;-74
2022/01/03 02:51:38;;;;;;;24.50;5.22;;;8.70;99.90;;;;;;5078561;28;20039;-74
2022/01/03 02:54:04;;;;;;;24.00;5.55;;;;;;;;;;5095273;28;20097;-74
2022/01/03 02:56:34;;;;;;;25.60;5.38;;;8.80;99.90;;;;;;5091103;28;20055;-74
2022/01/03 02:58:59;;;;;;;27.83;6.60;;;8.60;99.90;;;;;;5091672;28;20481;-74
2022/01/03 03:01:25;;;;;;;16.35;5.28;;;8.80;99.90;;;;;;5075394;28;20074;-75
2022/01/03 03:03:51;;;;;;;16.85;4.47;;;8.70;99.90;;;;;;5075328;28;20400;-74
2022/01/03 03:06:17;;;;;;;22.15;5.35;;;8.90;99.90;;;;;;5077110;28;20526;-73
2022/01/03 03:08:42;;;;;;;13.77;4.75;;;8.50;99.90;;;;;;5095697;28;20039;-74
2022/01/03 03:11:08;;;;;;;22.90;6.10;;;8.80;99.90;;;;;;5091069;28;20032;-74
2022/01/03 03:13:34;;;;;;;14.98;4.47;;;8.50;99.90;;;;;;5074869;28;20052;-73
2022/01/03 03:16:00;;;;;;;28.40;6.07;;;10.10;99.90;;;;;;5074725;28;20046;-74
2022/01/03 03:18:26;;;;;;;26.23;6.72;;;8.40;99.90;;;;;;5091047;28;20044;-73
2022/01/03 03:20:54;;;;;;;27.17;5.88;;;9.30;99.90;;;;;;5112878;28;20083;-75
2022/01/03 03:23:22;;;;;;;27.58;5.88;;;8.60;99.90;;;;;;5095516;28;20082;-74
2022/01/03 03:25:48;;;;;;;28.35;5.63;;;;;;;;;;5094706;28;20083;-75
2022/01/03 03:28:15;;;;;;;19.85;5.10;;;8.80;99.90;;;;;;5072411;28;20086;-74
2022/01/03 03:30:44;;;;;;;22.42;5.68;;;10.20;99.90;;;;;;5095516;28;20031;-75
2022/01/03 03:33:14;;;;;;;25.35;5.57;;;8.70;99.90;;;;;;5112602;28;20108;-74
2022/01/03 03:35:40;;;;;;;24.50;5.15;;;8.60;99.90;;;;;;5078246;28;20068;-75
2022/01/03 03:38:06;;;;;;;24.52;5.75;;;8.50;99.90;;;;;;5077687;28;20044;-75
2022/01/03 03:40:33;;;;;;;26.45;5.85;;;8.50;99.90;;;;;;5095221;28;20046;-74
2022/01/03 03:42:58;;;;;;;24.67;5.93;;;8.50;99.90;;;;;;5094118;28;20127;-75
2022/01/03 03:45:24;;;;;;;20.17;5.55;;;8.60;99.90;;;;;;5078219;28;20130;-74
2022/01/03 03:47:51;;;;;;;23.13;4.57;;;8.50;99.90;;;;;;5094399;28;20075;-75
2022/01/03 03:50:18;;;;;;;24.00;5.10;;;8.60;99.90;;;;;;5094979;28;20119;-75
2022/01/03 03:52:44;;;;;;;18.73;5.35;;;8.40;99.90;;;;;;5077659;28;20047;-74
2022/01/03 03:55:10;;;;;;;22.88;5.07;;;9.10;99.90;;;;;;5093654;28;20058;-75
2022/01/03 03:57:36;;;;;;;25.23;5.13;;;8.40;99.90;;;;;;5081267;28;20381;-75
2022/01/03 04:00:05;;;;;;;15.63;6.45;;;8.80;99.90;;;;;;5074094;28;20044;-75
2022/01/03 04:02:31;;;;;;;23.13;5.20;;;8.70;99.90;;;;;;5074182;28;20044;-75
2022/01/03 04:04:59;;;;;;;23.13;5.75;;;8.60;99.90;;;;;;5074045;28;20050;-75
2022/01/03 04:07:24;;;;;;;26.30;5.65;;;8.50;99.90;;;;;;5089872;28;20476;-75
2022/01/03 04:09:50;;;;;;;29.85;6.75;;;;;;;;;;5077109;28;20059;-74
2022/01/03 04:12:16;;;;;;;16.88;5.47;;;8.80;99.90;;;;;;5081518;28;20505;-74
2022/01/03 04:14:42;;;;;;;22.27;5.72;;;8.60;99.90;;;;;;5092239;28;20169;-75
2022/01/03 04:17:09;;;;;;;22.75;5.80;;;9.10;99.90;;;;;;5076627;28;20069;-74
2022/01/03 04:19:35;;;;;;;20.35;5.40;;;8.50;99.90;;;;;;5094374;28;20062;-75
2022/01/03 04:22:01;;;;;;;22.05;6.70;;;;;;;;;;5093792;28;20052;-75
2022/01/03 04:24:26;;;;;;;21.83;5.47;;;8.70;99.90;;;;;;5077636;28;20040;-75
2022/01/03 04:26:53;;;;;;;25.48;7.53;;;8.50;99.90;;;;;;5092845;28;20103;-75
2022/01/03 04:29:18;;;;;;;24.73;6.38;;;8.50;99.90;;;;;;5094281;28;20170;-75
2022/01/03 04:31:44;;;;;;;21.55;5.72;;;9.80;99.90;;;;;;5093670;28;20216;-75
2022/01/03 04:34:10;;;;;;;23.13;6.43;;;8.60;99.90;;;;;;5093975;28;20052;-75
2022/01/03 04:36:36;;;;;;;21.13;5.40;;;8.70;99.90;;;;;;5094187;28;20046;-74
2022/01/03 04:39:03;;;;;;;19.27;5.07;;;8.70;99.90;;;;;;5093926;28;20039;-75
2022/01/03 04:41:29;;;;;;;22.52;5.50;;;8.50;99.90;;;;;;5094661;28;20047;-74
2022/01/03 04:43:54;;;;;;;23.42;5.85;;;8.50;99.90;;;;;;5083405;28;20100;-75
2022/01/03 04:46:20;;;;;;;26.23;6.07;;;8.40;99.90;;;;;;5098457;28;20053;-75
2022/01/03 04:48:46;;;;;;;26.67;5.82;;;8.50;99.90;;;;;;5097861;28;20089;-74
2022/01/03 04:51:11;;;;;;;30.90;6.65;;;8.40;99.90;;;;;;5081271;28;20108;-74
2022/01/03 04:53:39;;;;;;;29.95;6.00;;;9.90;99.90;;;;;;5097988;28;20500;-74
2022/01/03 04:56:07;;;;;;;23.38;7.00;;;8.40;99.90;;;;;;5097239;28;20134;-73
2022/01/03 04:58:33;;;;;;;24.98;6.68;;;8.40;99.90;;;;;;5097810;28;20047;-73
2022/01/03 05:00:59;;;;;;;22.15;6.05;;;8.20;99.90;;;;;;5097411;28;20395;-74
2022/01/03 05:03:24;;;;;;;31.63;6.30;;;8.40;99.90;;;;;;5089435;28;20067;-74
2022/01/03 05:05:50;;;;;;;27.73;5.05;;;8.40;99.90;;;;;;5076930;28;20080;-73
2022/01/03 05:08:15;;;;;;;21.30;6.50;;;8.00;99.90;;;;;;5112882;28;20043;-74
2022/01/03 05:10:41;;;;;;;22.23;6.05;;;8.40;99.90;;;;;;5097872;28;20515;-73
2022/01/03 05:13:07;;;;;;;26.38;6.22;;;8.30;99.90;;;;;;5115030;28;20031;-74
2022/01/03 05:15:32;;;;;;;35.13;6.10;;;8.40;99.90;;;;;;5095261;28;20449;-74
2022/01/03 05:17:58;;;;;;;24.15;5.95;;;8.30;99.90;;;;;;5102684;28;20169;-74
2022/01/03 05:20:24;;;;;;;33.47;6.70;;;9.70;99.90;;;;;;5097718;28;20132;-74
2022/01/03 05:22:49;;;;;;;20.88;5.80;;;8.30;99.90;;;;;;5080817;28;20039;-74
2022/01/03 05:25:15;;;;;;;24.80;5.65;;;8.40;99.90;;;;;;5080001;28;20078;-74
2022/01/03 05:27:42;;;;;;;20.98;5.45;;;8.40;99.90;;;;;;5114929;28;20062;-75
2022/01/03 05:30:08;;;;;;;22.40;5.38;;;8.30;99.90;;;;;;5096793;28;20051;-73
2022/01/03 05:32:34;;;;;;;27.67;6.15;;;8.40;99.90;;;;;;5096469;28;20052;-74
2022/01/03 05:35:00;;;;;;;24.40;6.85;;;8.60;99.90;;;;;;5096894;28;20121;-74
2022/01/03 05:37:25;;;;;;;22.42;6.53;;;8.40;99.90;;;;;;5096939;28;20039;-74
2022/01/03 05:39:51;;;;;;;20.17;6.18;;;8.50;99.90;;;;;;5096376;28;20054;-74
2022/01/03 05:42:17;;;;;;;26.80;5.68;;;8.50;99.90;;;;;;5115335;28;20118;-74
2022/01/03 05:44:42;;;;;;;22.88;7.57;;;8.50;99.90;;;;;;5097863;28;20126;-74
2022/01/03 05:47:08;;;;;;;23.92;8.55;;;8.40;99.90;;;;;;5095907;28;20050;-73
2022/01/03 05:49:34;;;;;;;29.17;5.35;;;8.30;99.90;;;;;;5097238;28;20173;-73
2022/01/03 05:51:59;;;;;;;24.00;6.60;;;8.90;99.90;;;;;;5096369;28;20043;-74
2022/01/03 05:54:25;;;;;;;22.13;5.40;;;9.80;99.90;;;;;;5096198;28;20039;-74
2022/01/03 05:56:51;;;;;;;28.48;6.97;;;9.00;99.90;;;;;;5079256;28;20122;-74
2022/01/03 05:59:16;;;;;;;27.95;5.82;;;9.00;99.90;;;;;;5096822;28;20131;-74
2022/01/03 06:01:42;;;;;;;25.10;5.82;;;9.00;99.90;;;;;;5130506;27;20063;-74
2022/01/03 06:04:54;;;;;;;24.58;6.45;;;8.60;99.90;;;;;;5096246;28;20081;-75
2022/01/03 06:07:05;;;;;;;28.20;6.40;;;9.60;99.90;;;;;;5091276;28;20053;-74
2022/01/03 06:09:31;;;;;;;25.13;7.07;;;9.80;99.90;;;;;;5096927;28;20472;-75
2022/01/03 06:11:58;;;;;;;30.55;6.28;;;9.00;99.90;;;;;;5096387;28;20040;-75
2022/01/03 06:14:25;;;;;;;23.52;5.32;;;9.70;99.90;;;;;;5096303;28;20070;-74
2022/01/03 06:16:51;;;;;;;28.63;6.60;;;8.50;99.90;;;;;;5081283;28;20132;-75
2022/01/03 06:19:17;;;;;;;30.50;7.25;;;8.50;99.90;;;;;;5096182;28;20036;-75
2022/01/03 06:21:44;;;;;;;25.25;5.90;;;8.50;99.90;;;;;;5078946;28;20047;-74
2022/01/03 06:24:14;;;;;;;30.08;8.13;;;9.30;99.90;;;;;;5114336;28;20046;-74
2022/01/03 06:26:41;;;;;;;27.77;7.63;;;8.70;99.90;;;;;;5069802;28;20040;-74
2022/01/03 06:29:08;;;;;;;27.50;7.43;;;10.00;99.90;;;;;;5074968;28;20048;-74
2022/01/03 06:31:34;;;;;;;26.13;7.82;;;9.00;99.90;;;;;;5076425;28;20044;-75
2022/01/03 06:34:00;;;;;;;33.80;8.80;;;10.10;99.90;;;;;;5075102;28;20052;-74
2022/01/03 06:36:26;;;;;;;30.92;8.55;;;10.20;99.90;;;;;;5092807;28;20096;-75
2022/01/03 06:38:52;;;;;;;27.40;7.88;;;8.70;99.90;;;;;;5075638;28;20078;-74
2022/01/03 06:41:18;;;;;;;30.98;6.80;;;8.60;99.90;;;;;;5082963;28;20075;-74
2022/01/03 06:43:44;;;;;;;22.05;6.28;;;8.50;99.90;;;;;;5095625;28;20094;-74
2022/01/03 06:46:09;;;;;;;25.50;5.97;;;8.60;99.90;;;;;;5095296;28;20119;-74
2022/01/03 06:48:35;;;;;;;23.48;5.80;;;9.80;99.90;;;;;;5095680;28;20104;-74
2022/01/03 06:51:01;;;;;;;24.00;6.43;;;;;;;;;;5078256;28;20454;-77
2022/01/03 06:53:27;;;;;;;28.20;7.40;;;8.50;99.90;;;;;;5096027;28;20074;-77
2022/01/03 06:55:53;;;;;;;31.63;7.53;;;8.10;99.90;;;;;;5095156;28;20079;-77
2022/01/03 06:58:18;;;;;;;30.50;6.38;;;10.20;99.90;;;;;;5078717;28;20047;-75
2022/01/03 07:00:44;;;;;;;32.15;7.10;;;8.50;99.90;;;;;;5095741;28;20114;-75
2022/01/03 07:03:10;;;;;;;26.08;7.05;;;8.40;99.90;;;;;;5094582;28;20046;-75
2022/01/03 07:05:35;;;;;;;27.08;8.45;;;8.40;99.90;;;;;;5095221;28;20043;-76
2022/01/03 07:08:01;;;;;;;34.63;8.80;;;10.10;99.90;;;;;;5094951;28;20090;-75
2022/01/03 07:10:27;;;;;;;25.63;7.30;;;8.40;99.90;;;;;;5078266;28;20031;-75
2022/01/03 07:12:54;;;;;;;31.88;8.52;;;8.30;99.90;;;;;;5077991;28;20126;-77
2022/01/03 07:20:50;;;;;;;28.30;6.75;;;;;;;;;;5074837;28;20101;-76
2022/01/03 07:23:17;;;;;;;29.77;7.57;;;8.20;99.90;;;;;;5075220;28;20053;-77
2022/01/03 07:25:44;;;;;;;25.75;7.22;;;8.10;99.90;;;;;;5081048;28;20274;-75
2022/01/03 07:28:10;;;;;;;34.13;6.68;;;8.00;99.90;;;;;;5094818;28;20092;-75
2022/01/03 07:30:35;;;;;;;37.40;9.07;;;8.20;99.90;;;;;;5113738;28;20044;-74
2022/01/03 07:33:01;;;;;;;25.08;6.00;;;8.10;99.90;;;;;;5111863;28;20476;-75
2022/01/03 07:35:27;;;;;;;26.60;7.35;;;8.10;99.90;;;;;;5112305;28;20063;-74
2022/01/03 07:37:53;;;;;;;26.92;7.85;;;8.10;99.90;;;;;;5093503;28;20048;-74
2022/01/03 07:40:20;;;;;;;25.80;7.50;;;8.30;99.90;;;;;;5069476;28;20028;-75
2022/01/03 07:42:46;;;;;;;28.10;7.20;;;8.10;99.90;;;;;;5116881;28;20541;-74
2022/01/03 07:45:12;;;;;;;36.53;8.30;;;8.20;99.90;;;;;;5076189;28;20048;-75
2022/01/03 07:47:39;;;;;;;28.15;7.78;;;8.30;99.90;;;;;;5087882;28;20089;-72
2022/01/03 07:50:07;;;;;;;32.20;7.07;;;8.10;99.90;;;;;;5092768;28;20039;-72
2022/01/03 07:52:34;;;;;;;29.42;8.30;;;8.30;99.90;;;;;;5084996;28;20477;-73
2022/01/03 07:55:00;;;;;;;23.95;6.50;;;;;;;;;;5114275;28;20043;-72
2022/01/03 07:57:26;;;;;;;36.03;7.47;;;8.30;99.90;;;;;;5083129;28;20048;-73
2022/01/03 07:59:51;;;;;;;25.60;6.82;;;8.10;99.90;;;;;;5091100;28;20047;-72
2022/01/03 08:02:18;;;;;;;29.38;8.05;;;8.00;99.90;;;;;;5086704;28;20118;-72
2022/01/03 08:04:45;;;;;;;41.38;6.65;;;8.30;99.90;;;;;;5092230;28;20515;-73
2022/01/03 08:07:10;;;;;;;24.70;6.95;;;8.00;99.90;;;;;;5075321;28;20069;-75
2022/01/03 08:09:36;;;;;;;27.30;7.93;;;8.70;99.90;;;;;;5093650;28;20043;-77
2022/01/03 08:12:02;;;;;;;24.50;7.60;;;10.50;99.90;;;;;;5092668;28;20782;-75
2022/01/03 08:14:28;;;;;;;30.48;7.68;;;8.30;99.90;;;;;;5090693;28;20043;-72
2022/01/03 08:16:53;;;;;;;31.02;7.90;;;8.40;99.90;;;;;;5087987;28;20461;-71
2022/01/03 08:19:19;;;;;;;29.55;7.40;;;8.50;99.90;;;;;;5091253;28;20151;-68
2022/01/03 08:21:45;;;;;;;30.83;7.50;;;9.90;99.90;;;;;;5071776;28;20831;-68
2022/01/03 08:24:10;;;;;;;35.55;9.13;;;9.90;99.90;;;;;;5091142;28;20055;-71
2022/01/03 08:26:38;;;;;;;32.08;8.43;;;8.20;99.90;;;;;;5091210;28;20059;-72
2022/01/03 08:29:05;;;;;;;25.15;7.03;;;10.00;99.90;;;;;;5090492;28;20044;-72
2022/01/03 08:31:31;;;;;;;25.38;6.07;;;8.10;99.90;;;;;;5090860;28;20078;-72
2022/01/03 08:33:57;;;;;;;27.50;8.45;;;;;;;;;;5034781;28;1072569;-73
2022/01/03 08:36:23;;;;;;;26.40;6.70;;;;;;;;;;5087551;28;20042;-75
2022/01/03 08:38:49;;;;;;;31.42;7.65;;;8.30;99.90;;;;;;5110750;28;20039;-76
2022/01/03 08:41:14;;;;;;;29.73;7.90;;;8.10;99.90;;;;;;5092945;28;20108;-77
2022/01/03 08:43:40;;;;;;;24.48;6.90;;;8.20;99.90;;;;;;5077157;28;20039;-77
2022/01/03 08:46:06;;;;;;;29.42;7.40;;;8.30;99.90;;;;;;5087117;28;20104;-77
2022/01/03 08:48:32;;;;;;;22.38;6.18;;;8.40;99.90;;;;;;5079631;28;20066;-75
2022/01/03 08:50:57;;;;;;;28.88;7.25;;;8.50;99.90;;;;;;5071845;28;20044;-75
2022/01/03 08:53:26;;;;;;;26.38;7.55;;;8.30;99.90;;;;;;5088588;28;20089;-73
2022/01/03 08:55:56;;;;;;;31.42;6.35;;;8.40;99.90;;;;;;5111318;28;20047;-73
2022/01/03 08:58:24;;;;;;;23.27;6.25;;;8.50;99.90;;;;;;5092833;28;20431;-73
2022/01/03 09:00:50;;;;;;;21.42;6.10;;;8.50;99.90;;;;;;5074015;28;20048;-74
2022/01/03 09:03:17;;;;;;;27.63;6.93;;;8.70;99.90;;;;;;5072507;28;20090;-75
2022/01/03 09:05:43;;;;;;;25.45;6.57;;;8.50;99.90;;;;;;5122318;28;20089;-74
2022/01/03 09:08:10;;;;;;;29.88;6.70;;;8.70;99.90;;;;;;5089818;28;20044;-75
2022/01/03 09:10:36;;;;;;;23.38;6.00;;;10.20;99.90;;;;;;5085297;28;20056;-75
2022/01/03 09:13:02;;;;;;;28.90;7.53;;;8.40;99.90;;;;;;5080652;28;20487;-76
2022/01/03 09:15:28;;;;;;;37.63;8.07;;;8.60;99.90;;;;;;5092258;28;20047;-76
2022/01/03 09:17:54;;;;;;;30.45;7.05;;;8.50;99.90;;;;;;5083089;28;20044;-76
2022/01/03 09:20:50;;;;;;;29.70;6.78;;;8.60;99.90;;;;;;5096520;28;20036;-74
2022/01/03 09:23:21;;;;;;;29.27;7.63;;;8.80;99.90;;;;;;5124485;28;20040;-72
2022/01/03 09:28:49;;;;;;;33.00;7.65;;;8.60;99.90;;;;;;5094778;28;20492;-74
2022/01/03 09:31:22;;;;;;;24.02;7.32;;;8.70;99.90;;;;;;5090797;28;20039;-77
2022/01/03 09:33:48;;;;;;;31.48;7.82;;;8.70;99.90;;;;;;5094480;28;20504;-71
2022/01/03 09:36:14;;;;;;;28.35;8.10;;;8.60;99.90;;;;;;5091805;28;20115;-76
2022/01/03 09:38:40;;;;;;;33.78;8.30;;;10.50;99.90;;;;;;5093432;28;20114;-75
2022/01/03 09:41:07;;;;;;;28.98;7.15;;;8.70;99.90;;;;;;5097231;28;20047;-81
2022/01/03 09:43:41;;;;;;;22.70;6.50;;;8.70;99.90;;;;;;5097147;28;20085;-76
2022/01/03 09:46:10;;;;;;;32.40;6.22;;;8.70;99.90;;;;;;5077816;28;21490;-74
2022/01/03 09:48:41;;;;;;;23.17;6.40;;;8.80;99.90;;;;;;5093595;28;20047;-73
2022/01/03 09:51:06;;;;;;;36.67;7.68;;;8.60;99.90;;;;;;5096867;28;20044;-75
2022/01/03 09:53:33;;;;;;;26.40;6.68;;;8.90;99.90;;;;;;5097359;28;20040;-75
2022/01/03 09:55:59;;;;;;;23.58;6.18;;;9.00;99.90;;;;;;5080131;28;20036;-75
2022/01/03 09:58:25;;;;;;;19.80;5.95;;;9.00;99.90;;;;;;5093366;28;20089;-78
2022/01/03 10:00:51;;;;;;;25.10;8.23;;;10.30;99.90;;;;;;5111044;28;20035;-77
2022/01/03 10:03:17;;;;;;;18.77;7.30;;;9.10;99.90;;;;;;5094239;28;20050;-81
2022/01/03 10:05:42;;;;;;;24.63;6.85;;;9.10;99.90;;;;;;5088174;28;20054;-78
2022/01/03 10:08:08;;;;;;;23.17;7.75;;;9.20;99.90;;;;;;5095752;28;20062;-76
2022/01/03 10:10:34;;;;;;;24.20;6.63;;;9.10;99.90;;;;;;5110479;28;20044;-78
2022/01/03 10:13:00;;;;;;;27.65;7.47;;;9.20;99.90;;;;;;5109781;28;20485;-79
2022/01/03 10:15:26;;;;;;;24.35;6.38;;;9.30;99.90;;;;;;5101891;28;20028;-78
2022/01/03 10:17:52;;;;;;;27.63;6.90;;;9.20;99.90;;;;;;5096140;28;20490;-78
2022/01/03 10:20:18;;;;;;;23.50;6.10;;;9.20;99.90;;;;;;5089800;28;20040;-77
2022/01/03 10:22:43;;;;;;;24.38;7.35;;;9.50;99.90;;;;;;5122858;27;20036;-77
2022/01/03 10:25:19;;;;;;;30.25;7.13;;;9.60;99.90;;;;;;5089580;28;20043;-76
2022/01/03 10:27:56;;;;;;;30.90;7.13;;;9.90;99.90;;;;;;5096284;28;20043;-76
2022/01/03 10:30:41;;;;;;;26.27;8.30;;;9.60;99.90;;;;;;5095904;28;20076;-75
2022/01/03 10:33:09;;;;;;;21.15;6.18;;;10.60;99.90;;;;;;5095631;28;20044;-75
2022/01/03 10:35:38;;;;;;;21.95;6.10;;;9.50;99.90;;;;;;5095458;28;20172;-74
2022/01/03 10:38:04;;;;;;;25.23;6.85;;;;;;;;;;5094866;28;20047;-75
2022/01/03 10:40:31;;;;;;;20.95;6.65;;;9.60;99.90;;;;;;5114194;28;20172;-74
2022/01/03 10:43:19;;;;;;;22.40;7.05;;;9.20;99.90;;;;;;5129468;27;20448;-74
2022/01/03 10:45:45;;;;;;;23.58;8.43;;;;;;;;;;5096130;28;20063;-74
2022/01/03 10:48:30;;;;;;;20.38;5.15;;;9.60;99.90;;;;;;5095545;28;20096;-74
2022/01/03 10:50:57;;;;;;;24.20;6.38;;;9.60;99.90;;;;;;5095699;28;20065;-75
2022/01/03 10:53:42;;;;;;;24.98;5.78;;;9.60;99.90;;;;;;5096014;28;20047;-75
2022/01/03 10:56:24;;;;;;;29.37;6.83;;;11.00;99.90;;;;;;5094636;28;20050;-74
2022/01/03 10:58:57;;;;;;;25.25;5.28;;;9.70;99.90;;;;;;5095572;28;20278;-75
2022/01/03 11:01:26;;;;;;;16.52;5.70;;;9.70;99.90;;;;;;5095950;28;20067;-75
2022/01/03 11:03:53;;;;;;;23.05;6.68;;;9.90;99.90;;;;;;5094570;28;20575;-74
2022/01/03 11:11:45;;;;;;;28.95;6.00;;;9.60;99.90;;;;;;5095470;28;20048;-72
2022/01/03 11:14:33;;;;;;;18.75;5.78;;;9.60;99.90;;;;;;5095464;28;20614;-76
2022/01/03 11:17:54;;;;;;;15.57;4.80;;;9.90;99.90;;;;;;5094840;28;20392;-78
2022/01/03 11:20:21;;;;;;;25.58;5.97;;;9.80;99.90;;;;;;5096353;28;20078;-77
2022/01/03 11:22:49;;;;;;;29.77;6.30;;;9.60;99.90;;;;;;5078654;28;20391;-77
2022/01/03 11:25:18;;;;;;;16.83;6.00;;;;;;;;;;5078192;28;20067;-78
2022/01/03 11:27:43;;;;;;;20.75;5.57;;;9.80;99.90;;;;;;5113318;28;20043;-77
2022/01/03 11:30:12;;;;;;;22.00;5.50;;;9.80;99.90;;;;;;5112870;28;20046;-76
2022/01/03 11:32:43;;;;;;;27.70;6.47;;;9.90;99.90;;;;;;5095209;28;20434;-78
2022/01/03 11:35:10;;;;;;;25.63;5.95;;;10.70;99.90;;;;;;5094254;28;20498;-77
2022/01/03 11:37:40;;;;;;;25.58;8.27;;;10.30;99.90;;;;;;5094971;28;20123;-76
2022/01/03 11:40:09;;;;;;;23.00;5.03;;;9.90;99.90;;;;;;5094629;28;20083;-76
2022/01/03 11:42:36;;;;;;;23.25;6.18;;;10.00;99.90;;;;;;5095486;28;20430;-78
2022/01/03 11:45:02;;;;;;;28.75;6.55;;;9.60;99.90;;;;;;5075645;28;20043;-78
2022/01/03 11:47:28;;;;;;;23.88;5.25;;;10.00;99.90;;;;;;5095082;28;20071;-77
2022/01/03 11:49:54;;;;;;;32.85;7.93;;;10.10;99.90;;;;;;5094023;28;20044;-75
2022/01/03 11:52:22;;;;;;;21.65;7.15;;;10.00;99.90;;;;;;5093958;28;20051;-75
2022/01/03 11:54:50;;;;;;;17.83;5.53;;;10.10;99.90;;;;;;5094036;28;20051;-77
2022/01/03 12:05:51;;;;;;;21.48;5.75;;;10.10;99.90;;;;;;5090285;28;20039;-79
2022/01/03 12:08:24;;;;;;;21.27;5.65;;;9.90;99.90;;;;;;5098027;28;20523;-75
2022/01/03 12:10:50;;;;;;;21.30;5.43;;;9.80;99.90;;;;;;5119372;27;20043;-75
2022/01/03 12:13:16;;;;;;;23.08;5.60;;;10.40;99.90;;;;;;5094448;28;20042;-81
2022/01/03 12:15:42;;;;;;;21.80;6.13;;;12.40;99.90;;;;;;5092891;28;20039;-74
2022/01/03 12:18:30;;;;;;;23.75;5.72;;;9.70;99.90;;;;;;5061614;28;20097;-74
2022/01/03 12:20:56;;;;;;;14.93;5.63;;;;;;;;;;5076523;28;20372;-75
2022/01/03 12:23:39;;;;;;;19.83;5.65;;;;;;;;;;5093610;28;20039;-75
2022/01/03 12:26:08;;;;;;;26.55;6.55;;;;;;;;;;5079514;28;20131;-75
2022/01/03 12:28:53;;;;;;;26.83;6.07;;;;;;;;;;5092187;28;20058;-74
2022/01/03 12:31:19;;;;;;;24.23;6.22;;;;;;;;;;5090101;28;20036;-73
2022/01/03 12:34:05;;;;;;;20.55;6.35;;;;;;;;;;5077576;28;20048;-75
2022/01/03 12:36:31;;;;;;;26.98;5.53;;;;;;;;;;5070384;28;20395;-79
2022/01/03 12:39:05;;;;;;;28.90;6.60;;;;;;;;;;5065843;28;20059;-75
2022/01/03 12:41:38;;;;;;;26.90;7.32;;;;;;;;;;5071756;28;20036;-76
2022/01/03 12:44:09;;;;;;;21.17;5.40;;;;;;;;;;5088893;28;20048;-77
2022/01/03 12:46:35;;;;;;;21.15;5.40;;;;;;;;;;5086144;28;20044;-72
2022/01/03 12:49:20;;;;;;;22.67;6.25;;;;;;;;;;5089127;28;20051;-76
2022/01/03 12:51:46;;;;;;;28.55;6.93;;;;;;;;;;5103619;28;20396;-77
2022/01/03 12:54:12;;;;;;;26.95;6.13;;;;;;;;;;5107206;28;20044;-76
2022/01/03 12:56:39;;;;;;;23.20;6.05;;;;;;;;;;5081335;28;20071;-78
2022/01/03 12:59:12;;;;;;;30.15;6.53;;;;;;;;;;5086721;28;20055;-77
2022/01/03 13:01:38;;;;;;;25.77;6.70;;;;;;;;;;5088009;28;20453;-77
2022/01/03 13:04:19;;;;;;;24.05;6.53;;;;;;;;;;5089536;28;20527;-73
2022/01/03 13:06:46;;;;;;;24.52;6.05;;;;;;;;;;5081834;28;20577;-72
2022/01/03 13:09:13;;;;;;;20.98;6.50;;;;;;;;;;5121684;27;20051;-72
2022/01/03 13:11:49;;;;;;;26.73;7.93;;;;;;;;;;5091064;28;20461;-72
2022/01/03 13:14:20;;;;;;;21.30;6.13;;;;;;;;;;5090966;28;20408;-78
2022/01/03 13:16:46;;;;;;;23.42;6.72;;;;;;;;;;5087128;28;20044;-78
2022/01/03 13:19:13;;;;;;;21.25;6.45;;;;;;;;;;5071700;28;20563;-73
2022/01/03 13:21:41;;;;;;;24.33;6.40;;;;;;;;;;5087779;28;20043;-71
2022/01/03 13:24:09;;;;;;;30.85;6.75;;;;;;;;;;5090366;28;20052;-72
2022/01/03 13:26:35;;;;;;;29.25;6.63;;;;;;;;;;5088581;28;20040;-73